Time;durP1;ratioP1;P1;durP2;ratioP2;P2;SDS_P1;SDS_P2;PMS_P1;PMS_P2;Temp;Humidity;BMP_temperature;BMP_pressure;BME280_temperature;BME280_humidity;BME280_pressure;Samples;Min_cycle;Max_cycle;Signal;HPM_P1;HPM_P2
2021/12/01 00:01:00;;;;;;;2.08;1.10;;;7.60;99.90;;;;;;5014760;28;20049;-60
2021/12/01 00:03:26;;;;;;;3.05;0.70;;;7.60;99.90;;;;;;4988309;28;20042;-57
2021/12/01 00:05:52;;;;;;;1.60;0.77;;;7.60;99.90;;;;;;5005857;28;20056;-57
2021/12/01 00:08:18;;;;;;;1.33;0.85;;;7.60;99.90;;;;;;4999715;28;20058;-59
2021/12/01 00:10:44;;;;;;;0.70;0.50;;;7.60;99.90;;;;;;5002340;28;20105;-55
2021/12/01 00:13:13;;;;;;;1.25;0.70;;;7.60;99.90;;;;;;4997659;28;20046;-60
2021/12/01 00:15:40;;;;;;;0.80;0.65;;;7.60;99.90;;;;;;5006333;28;20036;-60
2021/12/01 00:18:06;;;;;;;1.73;0.82;;;7.60;99.90;;;;;;5005074;28;20031;-58
2021/12/01 00:20:33;;;;;;;1.17;0.50;;;7.70;99.90;;;;;;5004696;28;20037;-57
2021/12/01 00:22:59;;;;;;;2.10;0.57;;;7.60;99.90;;;;;;5003183;28;20030;-59
2021/12/01 00:25:26;;;;;;;0.45;0.45;;;7.60;99.90;;;;;;5005568;28;20527;-59
2021/12/01 00:27:53;;;;;;;0.65;0.50;;;7.60;99.90;;;;;;5020244;28;20036;-56
2021/12/01 00:30:20;;;;;;;2.22;0.70;;;7.60;99.90;;;;;;5009912;28;20030;-59
2021/12/01 00:32:47;;;;;;;1.95;0.63;;;7.60;99.90;;;;;;5009924;28;20025;-55
2021/12/01 00:35:13;;;;;;;3.80;0.50;;;7.60;99.90;;;;;;5005062;28;20085;-59
2021/12/01 00:37:40;;;;;;;1.10;0.60;;;7.60;99.90;;;;;;5012565;28;20034;-60
2021/12/01 00:40:08;;;;;;;1.50;0.47;;;7.60;99.90;;;;;;5011466;28;20037;-60
2021/12/01 00:42:34;;;;;;;0.88;0.50;;;7.60;99.90;;;;;;5012371;28;20463;-57
2021/12/01 00:45:06;;;;;;;0.88;0.50;;;7.60;99.90;;;;;;5006117;28;20068;-57
2021/12/01 00:47:46;;;;;;;0.73;0.40;;;7.60;99.90;;;;;;5001899;28;20046;-59
2021/12/01 00:50:17;;;;;;;0.95;0.52;;;7.60;99.90;;;;;;5013558;28;20026;-59
2021/12/01 00:52:43;;;;;;;1.30;0.60;;;7.60;99.90;;;;;;5011601;28;20025;-58
2021/12/01 00:55:09;;;;;;;0.40;0.38;;;7.60;99.90;;;;;;5011236;28;20194;-57
2021/12/01 00:57:35;;;;;;;0.57;0.50;;;7.60;99.90;;;;;;5017044;28;20080;-54
2021/12/01 01:00:04;;;;;;;1.67;0.52;;;7.60;99.90;;;;;;5003062;28;20030;-54
2021/12/01 01:02:30;;;;;;;2.15;1.30;;;7.60;99.90;;;;;;4994567;28;20045;-57
2021/12/01 01:04:55;;;;;;;0.70;0.50;;;7.70;99.90;;;;;;5018270;28;20155;-57
2021/12/01 01:07:21;;;;;;;2.95;0.38;;;7.70;99.90;;;;;;5007804;28;20487;-58
2021/12/01 01:09:46;;;;;;;0.47;0.40;;;7.70;99.90;;;;;;5006946;28;20022;-55
2021/12/01 01:17:41;;;;;;;1.30;0.60;;;7.70;99.90;;;;;;5004807;28;20032;-57
2021/12/01 01:20:11;;;;;;;0.70;0.45;;;7.70;99.90;;;;;;4999204;28;20509;-57
2021/12/01 01:22:38;;;;;;;1.98;1.05;;;7.70;99.90;;;;;;5002766;28;20101;-49
2021/12/01 01:25:05;;;;;;;3.20;0.68;;;7.70;99.90;;;;;;4997536;28;20081;-58
2021/12/01 01:27:31;;;;;;;1.20;1.00;;;7.70;99.90;;;;;;5008245;28;20029;-58
2021/12/01 01:29:56;;;;;;;1.65;1.10;;;7.70;99.90;;;;;;5008677;28;20034;-58
2021/12/01 01:32:22;;;;;;;0.85;0.80;;;7.70;99.90;;;;;;5005570;28;20110;-56
2021/12/01 01:34:48;;;;;;;0.70;0.70;;;7.70;99.90;;;;;;5013219;28;20104;-57
2021/12/01 01:37:14;;;;;;;1.13;1.00;;;7.70;99.90;;;;;;5004272;28;20096;-57
2021/12/01 01:39:40;;;;;;;0.55;0.50;;;7.70;99.90;;;;;;5004443;28;20021;-56
2021/12/01 01:42:05;;;;;;;1.10;0.73;;;7.70;99.90;;;;;;5001571;28;20025;-56
2021/12/01 01:44:31;;;;;;;1.50;0.80;;;7.70;99.90;;;;;;5005562;28;20022;-56
2021/12/01 01:46:57;;;;;;;2.35;0.63;;;7.70;99.90;;;;;;5003407;28;20019;-55
2021/12/01 01:49:36;;;;;;;2.55;0.63;;;7.70;99.90;;;;;;5002824;28;20107;-57
2021/12/01 01:52:02;;;;;;;0.90;0.90;;;7.70;99.90;;;;;;5004153;28;20037;-56
2021/12/01 01:54:27;;;;;;;0.98;0.80;;;7.70;99.90;;;;;;5003687;28;20018;-54
2021/12/01 01:56:53;;;;;;;5.32;0.90;;;7.70;99.90;;;;;;5004285;28;20037;-57
2021/12/01 01:59:18;;;;;;;0.65;0.60;;;7.70;99.90;;;;;;5007762;28;20107;-58
2021/12/01 02:01:44;;;;;;;0.90;0.80;;;7.70;99.90;;;;;;4986124;28;20023;-51
2021/12/01 02:04:16;;;;;;;0.50;0.50;;;7.80;99.90;;;;;;5003362;28;20124;-57
2021/12/01 02:06:46;;;;;;;0.65;0.60;;;7.80;99.90;;;;;;4998544;28;20025;-55
2021/12/01 02:09:11;;;;;;;0.50;0.50;;;7.70;99.90;;;;;;5005558;28;20023;-56
2021/12/01 02:11:37;;;;;;;0.60;0.60;;;7.80;99.90;;;;;;4998720;28;20412;-55
2021/12/01 02:14:03;;;;;;;1.02;0.50;;;7.70;99.90;;;;;;4992428;28;20052;-55
2021/12/01 02:16:29;;;;;;;0.60;0.60;;;7.70;99.90;;;;;;4998664;28;20028;-56
2021/12/01 02:18:54;;;;;;;1.58;0.52;;;7.70;99.90;;;;;;5014969;28;20026;-57
2021/12/01 02:21:29;;;;;;;0.73;0.52;;;7.80;99.90;;;;;;5013226;28;20026;-55
2021/12/01 02:24:06;;;;;;;2.92;0.60;;;7.70;99.90;;;;;;5017285;28;20033;-57
2021/12/01 02:26:35;;;;;;;3.20;0.82;;;7.70;99.90;;;;;;5007297;28;20058;-55
2021/12/01 02:29:04;;;;;;;3.08;1.98;;;7.70;99.90;;;;;;5005044;28;20707;-59
2021/12/01 02:31:34;;;;;;;0.60;0.60;;;7.70;99.90;;;;;;5003248;28;20034;-57
2021/12/01 02:34:00;;;;;;;1.17;0.68;;;7.70;99.90;;;;;;4998756;28;20026;-58
2021/12/01 02:36:27;;;;;;;1.35;0.90;;;7.70;99.90;;;;;;4999145;28;20547;-58
2021/12/01 02:38:53;;;;;;;0.80;0.77;;;7.70;99.90;;;;;;5000300;28;20491;-56
2021/12/01 02:41:30;;;;;;;1.60;1.13;;;7.70;99.90;;;;;;5004453;28;20057;-57
2021/12/01 02:43:57;;;;;;;0.90;0.80;;;7.70;99.90;;;;;;5011424;28;20021;-56
2021/12/01 02:46:24;;;;;;;3.28;0.90;;;7.70;99.90;;;;;;5005913;28;20041;-58
2021/12/01 02:48:50;;;;;;;0.88;0.77;;;7.70;99.90;;;;;;5011308;28;20719;-58
2021/12/01 02:51:17;;;;;;;0.93;0.80;;;7.70;99.90;;;;;;5024211;28;20025;-56
2021/12/01 02:53:43;;;;;;;1.38;1.10;;;7.70;99.90;;;;;;5010210;28;20026;-60
2021/12/01 02:56:09;;;;;;;1.45;1.08;;;7.70;99.90;;;;;;5017504;28;20034;-56
2021/12/01 02:58:38;;;;;;;3.28;1.08;;;7.70;99.90;;;;;;5011920;28;20018;-60
2021/12/01 03:01:07;;;;;;;1.70;1.17;;;7.70;99.90;;;;;;5004250;28;20034;-56
2021/12/01 03:03:33;;;;;;;5.28;0.75;;;7.70;99.90;;;;;;4989373;28;20046;-58
2021/12/01 03:05:59;;;;;;;1.63;1.23;;;7.70;99.90;;;;;;5015360;28;20597;-57
2021/12/01 03:08:25;;;;;;;1.65;1.30;;;7.60;99.90;;;;;;5012511;28;20062;-59
2021/12/01 03:10:53;;;;;;;2.50;1.77;;;7.60;99.90;;;;;;5009248;28;20511;-59
2021/12/01 03:13:20;;;;;;;1.83;1.10;;;7.60;99.90;;;;;;5000690;28;20122;-58
2021/12/01 03:15:46;;;;;;;1.85;1.50;;;7.60;99.90;;;;;;5008433;28;20026;-58
2021/12/01 03:18:13;;;;;;;1.88;1.20;;;7.60;99.90;;;;;;5003475;28;20033;-59
2021/12/01 03:20:39;;;;;;;2.08;1.73;;;7.60;99.90;;;;;;5006332;28;20461;-58
2021/12/01 03:23:05;;;;;;;2.72;1.48;;;7.60;99.90;;;;;;5004035;28;20041;-59
2021/12/01 03:25:31;;;;;;;1.67;1.40;;;7.60;99.90;;;;;;5003501;28;20030;-59
2021/12/01 03:27:57;;;;;;;2.80;1.65;;;7.60;99.90;;;;;;4999392;28;20049;-57
2021/12/01 03:30:22;;;;;;;2.33;1.63;;;7.60;99.90;;;;;;4997798;28;20740;-59
2021/12/01 03:32:49;;;;;;;2.60;1.63;;;7.60;99.90;;;;;;4997838;28;20395;-60
2021/12/01 03:35:15;;;;;;;2.55;1.75;;;7.60;99.90;;;;;;5003570;28;20028;-57
2021/12/01 03:37:42;;;;;;;2.13;1.65;;;7.60;99.90;;;;;;5015904;28;20022;-59
2021/12/01 03:40:10;;;;;;;2.75;1.85;;;7.60;99.90;;;;;;4999447;28;20038;-56
2021/12/01 03:42:35;;;;;;;3.40;2.20;;;7.60;99.90;;;;;;5009766;28;20117;-57
2021/12/01 03:45:03;;;;;;;2.55;1.80;;;7.60;99.90;;;;;;5003557;28;20432;-56
2021/12/01 03:47:29;;;;;;;2.65;1.88;;;7.60;99.90;;;;;;5005923;28;20026;-60
2021/12/01 03:49:54;;;;;;;2.33;1.70;;;7.60;99.90;;;;;;5004120;28;20034;-58
2021/12/01 03:52:21;;;;;;;2.20;1.60;;;7.60;99.90;;;;;;5007452;28;20480;-57
2021/12/01 03:54:47;;;;;;;4.65;1.60;;;7.60;99.90;;;;;;5001254;28;20024;-61
2021/12/01 03:57:14;;;;;;;3.10;1.60;;;7.60;99.90;;;;;;5006882;28;20030;-58
2021/12/01 03:59:40;;;;;;;2.20;1.80;;;7.60;99.90;;;;;;5008964;28;20026;-58
2021/12/01 04:02:06;;;;;;;2.30;1.77;;;7.60;99.90;;;;;;5001673;28;20498;-58
2021/12/01 04:04:32;;;;;;;2.50;1.70;;;7.70;99.90;;;;;;5013212;28;20026;-56
2021/12/01 04:06:58;;;;;;;2.85;1.42;;;7.70;99.90;;;;;;5000920;28;20547;-57
2021/12/01 04:09:24;;;;;;;7.22;1.83;;;7.60;99.90;;;;;;4991791;28;20133;-57
2021/12/01 04:11:50;;;;;;;5.05;1.73;;;7.60;99.90;;;;;;5001222;28;20169;-55
2021/12/01 04:14:15;;;;;;;2.35;1.83;;;7.60;99.90;;;;;;4998597;28;20065;-54
2021/12/01 04:16:41;;;;;;;3.33;1.83;;;7.60;99.90;;;;;;4999695;28;20114;-57
2021/12/01 04:19:07;;;;;;;3.03;2.17;;;7.60;99.90;;;;;;4999581;28;20034;-59
2021/12/01 04:21:32;;;;;;;4.22;2.78;;;7.60;99.90;;;;;;5005162;28;20543;-57
2021/12/01 04:23:58;;;;;;;4.28;2.22;;;7.60;99.90;;;;;;5006167;28;20038;-57
2021/12/01 04:26:26;;;;;;;4.43;2.65;;;7.60;99.90;;;;;;5007158;28;20033;-59
2021/12/01 04:28:54;;;;;;;4.18;2.47;;;7.60;99.90;;;;;;5003150;28;20029;-58
2021/12/01 04:31:21;;;;;;;6.63;3.55;;;7.60;99.90;;;;;;5009041;28;20029;-56
2021/12/01 04:33:48;;;;;;;5.20;4.07;;;7.60;99.90;;;;;;5005963;28;20033;-58
2021/12/01 04:36:16;;;;;;;3.55;2.80;;;7.60;99.90;;;;;;4998433;28;20100;-57
2021/12/01 04:38:42;;;;;;;5.10;3.13;;;7.60;99.90;;;;;;5006005;28;20347;-59
2021/12/01 04:41:08;;;;;;;5.82;3.80;;;7.60;99.90;;;;;;4990186;28;20034;-60
2021/12/01 04:43:37;;;;;;;6.78;4.18;;;7.60;99.90;;;;;;4998648;28;20041;-60
2021/12/01 04:46:03;;;;;;;5.25;3.22;;;7.60;99.90;;;;;;5008339;28;20495;-58
2021/12/01 04:48:29;;;;;;;3.83;3.25;;;7.60;99.90;;;;;;5003519;28;20045;-61
2021/12/01 04:50:55;;;;;;;6.45;3.67;;;7.60;99.90;;;;;;4999368;28;20031;-56
2021/12/01 04:53:21;;;;;;;6.35;3.67;;;7.60;99.90;;;;;;5000322;28;20075;-59
2021/12/01 04:55:47;;;;;;;5.15;4.00;;;7.60;99.90;;;;;;5002301;28;20022;-57
2021/12/01 04:58:13;;;;;;;5.82;3.65;;;7.50;99.90;;;;;;5008100;28;20060;-56
2021/12/01 05:00:39;;;;;;;5.63;4.03;;;7.50;99.90;;;;;;5003919;28;20558;-54
2021/12/01 05:03:05;;;;;;;6.25;3.80;;;7.50;99.90;;;;;;5003009;28;20184;-58
2021/12/01 05:05:30;;;;;;;8.23;4.05;;;7.50;99.90;;;;;;5007039;28;20038;-58
2021/12/01 05:07:56;;;;;;;5.65;3.50;;;7.50;99.90;;;;;;5008445;28;20033;-58
2021/12/01 05:10:22;;;;;;;7.00;3.88;;;7.50;99.90;;;;;;5001270;28;20025;-59
2021/12/01 05:12:48;;;;;;;5.38;3.33;;;7.50;99.90;;;;;;5010391;28;20026;-58
2021/12/01 05:15:13;;;;;;;5.80;3.50;;;7.50;99.90;;;;;;5007229;28;20048;-58
2021/12/01 05:17:39;;;;;;;4.10;3.20;;;7.50;99.90;;;;;;5005243;28;20053;-58
2021/12/01 05:20:07;;;;;;;7.07;3.95;;;7.50;99.90;;;;;;4999960;28;20070;-58
2021/12/01 05:22:33;;;;;;;5.38;2.90;;;7.50;99.90;;;;;;5008260;28;20030;-58
2021/12/01 05:24:59;;;;;;;4.50;3.15;;;7.50;99.90;;;;;;5000842;28;20271;-59
2021/12/01 05:27:25;;;;;;;4.75;3.08;;;7.50;99.90;;;;;;5003048;28;20029;-57
2021/12/01 05:29:51;;;;;;;4.38;2.97;;;7.50;99.90;;;;;;5003763;28;20027;-59
2021/12/01 05:32:17;;;;;;;6.43;2.97;;;7.50;99.90;;;;;;5000930;28;20090;-60
2021/12/01 05:34:43;;;;;;;4.57;2.60;;;7.50;99.90;;;;;;5006455;28;20035;-58
2021/12/01 05:37:08;;;;;;;4.07;2.47;;;7.50;99.90;;;;;;5008309;28;20128;-58
2021/12/01 05:39:34;;;;;;;5.15;2.92;;;7.50;99.90;;;;;;5004151;28;20092;-57
2021/12/01 05:42:01;;;;;;;4.72;2.50;;;7.50;99.90;;;;;;5003677;28;20034;-57
2021/12/01 05:44:29;;;;;;;5.10;2.70;;;7.50;99.90;;;;;;5002228;28;20028;-57
2021/12/01 05:46:55;;;;;;;3.92;2.30;;;7.50;99.90;;;;;;5007228;28;20084;-58
2021/12/01 05:49:20;;;;;;;3.08;2.38;;;7.50;99.90;;;;;;5005455;28;20978;-56
2021/12/01 05:51:46;;;;;;;3.05;2.15;;;7.50;99.90;;;;;;5003195;28;20022;-58
2021/12/01 05:54:12;;;;;;;3.28;2.28;;;7.40;99.90;;;;;;5007028;28;20435;-58
2021/12/01 05:56:37;;;;;;;4.93;2.33;;;7.40;99.90;;;;;;5005932;28;20033;-50
2021/12/01 05:59:03;;;;;;;3.47;2.30;;;7.50;99.90;;;;;;5009677;28;20022;-57
2021/12/01 06:01:29;;;;;;;8.02;3.22;;;7.40;99.90;;;;;;5009794;28;20034;-57
2021/12/01 06:03:55;;;;;;;18.60;8.88;;;7.50;99.90;;;;;;4996029;28;21429;-58
2021/12/01 06:06:20;;;;;;;16.25;8.15;;;7.50;99.90;;;;;;5003926;28;20454;-58
2021/12/01 06:08:46;;;;;;;5.75;2.72;;;7.50;99.90;;;;;;4996525;28;20092;-54
2021/12/01 06:11:12;;;;;;;10.27;6.38;;;7.50;99.90;;;;;;5003213;28;20113;-55
2021/12/01 06:13:40;;;;;;;3.10;2.42;;;7.40;99.90;;;;;;4995033;28;20037;-56
2021/12/01 06:16:06;;;;;;;11.32;3.50;;;7.40;99.90;;;;;;5006239;28;20033;-55
2021/12/01 06:18:31;;;;;;;3.05;2.30;;;7.30;99.90;;;;;;5004635;28;20029;-56
2021/12/01 06:20:58;;;;;;;5.18;2.15;;;7.30;99.90;;;;;;4993862;28;20179;-57
2021/12/01 06:23:24;;;;;;;4.07;1.67;;;7.30;99.90;;;;;;4997046;28;20030;-57
2021/12/01 06:25:50;;;;;;;2.55;2.03;;;7.20;99.90;;;;;;4999283;28;20076;-58
2021/12/01 06:28:15;;;;;;;3.35;1.75;;;7.20;99.90;;;;;;4999093;28;20057;-57
2021/12/01 06:30:41;;;;;;;3.05;1.50;;;7.20;99.90;;;;;;4999914;28;20072;-51
2021/12/01 06:33:08;;;;;;;2.67;1.55;;;7.20;99.90;;;;;;4999946;28;20565;-56
2021/12/01 06:35:34;;;;;;;1.95;1.75;;;7.20;99.90;;;;;;5005621;28;20049;-55
2021/12/01 06:38:00;;;;;;;1.83;1.67;;;7.20;99.90;;;;;;5004377;28;20029;-57
2021/12/01 06:40:26;;;;;;;1.73;1.25;;;7.20;99.90;;;;;;5001003;28;20037;-56
2021/12/01 06:42:53;;;;;;;3.22;1.30;;;7.20;99.90;;;;;;5001801;28;20033;-55
2021/12/01 06:45:19;;;;;;;2.22;1.73;;;7.10;99.90;;;;;;4999183;28;20093;-54
2021/12/01 06:47:45;;;;;;;3.40;1.52;;;7.20;99.90;;;;;;5008681;28;20072;-59
2021/12/01 06:50:13;;;;;;;2.20;1.23;;;7.20;99.90;;;;;;4999578;28;20076;-56
2021/12/01 06:52:38;;;;;;;1.70;1.30;;;7.20;99.90;;;;;;5002615;28;20053;-52
2021/12/01 06:55:06;;;;;;;1.65;1.20;;;7.20;99.90;;;;;;4998361;28;20480;-58
2021/12/01 06:57:32;;;;;;;4.30;1.48;;;7.20;99.90;;;;;;5000331;28;20037;-56
2021/12/01 06:59:58;;;;;;;11.57;5.43;;;7.20;99.90;;;;;;4998556;28;20065;-57
2021/12/01 07:02:24;;;;;;;9.60;4.72;;;7.20;99.90;;;;;;4979891;28;20062;-57
2021/12/01 07:04:49;;;;;;;5.28;2.75;;;7.20;99.90;;;;;;5004963;28;20038;-58
2021/12/01 07:07:15;;;;;;;13.27;6.35;;;7.20;99.90;;;;;;5008781;28;20132;-56
2021/12/01 07:09:44;;;;;;;11.75;4.55;;;7.20;99.90;;;;;;5002025;28;20037;-55
2021/12/01 07:12:10;;;;;;;6.53;3.25;;;7.20;99.90;;;;;;5004340;28;20030;-56
2021/12/01 07:14:35;;;;;;;18.42;9.63;;;7.20;99.90;;;;;;5004883;28;20038;-56
2021/12/01 07:17:01;;;;;;;6.43;2.53;;;7.30;99.90;;;;;;5002256;28;20439;-57
2021/12/01 07:19:27;;;;;;;1.90;1.13;;;7.30;99.90;;;;;;5008440;28;20089;-58
2021/12/01 07:21:52;;;;;;;4.88;2.45;;;7.40;99.90;;;;;;4997416;28;20037;-57
2021/12/01 07:24:20;;;;;;;11.13;4.88;;;7.40;99.90;;;;;;5005444;28;20026;-58
2021/12/01 07:26:46;;;;;;;3.05;1.83;;;7.40;99.90;;;;;;4999798;28;20030;-57
2021/12/01 07:29:11;;;;;;;1.17;1.08;;;7.40;99.90;;;;;;4999754;28;20034;-54
2021/12/01 07:31:37;;;;;;;1.48;1.00;;;7.40;99.90;;;;;;5015566;28;20034;-59
2021/12/01 07:34:03;;;;;;;2.30;1.20;;;7.40;99.90;;;;;;5002508;28;20493;-58
2021/12/01 07:36:29;;;;;;;3.53;1.27;;;7.40;99.90;;;;;;5000658;28;20030;-59
2021/12/01 07:38:56;;;;;;;3.28;1.58;;;7.40;99.90;;;;;;5002575;28;20030;-58
2021/12/01 07:41:22;;;;;;;8.32;2.22;;;7.40;99.90;;;;;;4999044;28;20120;-56
2021/12/01 07:43:47;;;;;;;1.20;0.88;;;7.40;99.90;;;;;;5000982;28;20101;-57
2021/12/01 07:46:14;;;;;;;2.08;1.52;;;7.50;99.90;;;;;;5002817;28;20120;-56
2021/12/01 07:48:39;;;;;;;4.97;2.30;;;7.50;99.90;;;;;;5000772;28;20084;-52
2021/12/01 07:51:05;;;;;;;2.22;1.00;;;7.50;99.90;;;;;;5006327;28;20037;-55
2021/12/01 07:53:31;;;;;;;2.05;1.10;;;7.50;99.90;;;;;;5007779;28;20033;-57
2021/12/01 07:55:57;;;;;;;2.30;1.00;;;7.60;99.90;;;;;;5006674;28;20026;-56
2021/12/01 07:58:23;;;;;;;1.42;0.77;;;7.60;99.90;;;;;;5013902;28;20034;-56
2021/12/01 08:00:48;;;;;;;3.10;1.45;;;7.60;99.90;;;;;;5002505;28;20564;-59
2021/12/01 08:03:14;;;;;;;2.70;1.48;;;7.70;99.90;;;;;;4988406;28;20092;-57
2021/12/01 08:05:40;;;;;;;2.13;1.25;;;7.70;99.90;;;;;;5005266;28;20034;-58
2021/12/01 08:08:06;;;;;;;1.63;1.33;;;7.70;99.90;;;;;;5011228;28;20034;-56
2021/12/01 08:10:32;;;;;;;4.57;2.70;;;7.70;99.90;;;;;;5001700;28;20719;-54
2021/12/01 08:13:00;;;;;;;2.42;1.55;;;7.70;99.90;;;;;;5006204;28;20465;-56
2021/12/01 08:15:27;;;;;;;1.08;0.90;;;7.70;99.90;;;;;;5006998;28;20026;-56
2021/12/01 08:17:53;;;;;;;5.63;3.03;;;7.80;99.90;;;;;;5012009;28;20502;-54
2021/12/01 08:20:19;;;;;;;2.78;1.77;;;7.90;99.90;;;;;;5006706;28;20065;-58
2021/12/01 08:22:46;;;;;;;5.07;2.85;;;7.90;99.90;;;;;;4998357;28;20810;-56
2021/12/01 08:25:12;;;;;;;5.53;2.47;;;7.90;99.90;;;;;;5010834;28;20788;-56
2021/12/01 08:27:38;;;;;;;5.97;2.55;;;7.90;99.90;;;;;;5002769;28;20042;-59
2021/12/01 08:30:05;;;;;;;18.00;7.63;;;7.90;99.90;;;;;;5003018;28;20083;-58
2021/12/01 08:32:30;;;;;;;12.10;5.57;;;7.90;99.90;;;;;;5009915;28;20037;-54
2021/12/01 08:34:56;;;;;;;7.90;4.57;;;7.90;99.90;;;;;;5012794;28;20022;-57
2021/12/01 08:37:22;;;;;;;5.88;3.13;;;7.90;99.90;;;;;;5018502;28;20030;-58
2021/12/01 08:39:49;;;;;;;9.45;4.95;;;7.90;99.90;;;;;;5010545;28;20022;-59
2021/12/01 08:42:16;;;;;;;21.30;9.75;;;7.90;99.90;;;;;;5006716;28;20026;-58
2021/12/01 08:44:45;;;;;;;7.32;3.78;;;7.90;99.90;;;;;;5014030;28;20021;-56
2021/12/01 08:47:12;;;;;;;2.45;1.63;;;7.90;99.90;;;;;;5018162;28;20041;-58
2021/12/01 08:49:37;;;;;;;0.68;0.60;;;7.90;99.90;;;;;;5010125;28;20037;-56
2021/12/01 08:52:03;;;;;;;0.80;0.70;;;7.90;99.90;;;;;;5001907;28;20038;-57
2021/12/01 08:54:29;;;;;;;0.82;0.50;;;8.00;99.90;;;;;;5014691;28;20565;-57
2021/12/01 08:56:55;;;;;;;0.45;0.45;;;8.00;99.90;;;;;;5005164;28;20522;-57
2021/12/01 08:59:20;;;;;;;0.38;0.38;;;8.00;99.90;;;;;;5003010;28;20049;-54
2021/12/01 09:01:46;;;;;;;0.50;0.43;;;8.00;99.90;;;;;;5010827;28;20041;-56
2021/12/01 09:04:12;;;;;;;0.55;0.40;;;8.00;99.90;;;;;;4994084;28;20053;-57
2021/12/01 09:06:37;;;;;;;1.17;0.60;;;8.10;99.90;;;;;;5021736;28;20048;-59
2021/12/01 09:09:03;;;;;;;1.20;0.60;;;8.10;99.90;;;;;;5005337;28;20033;-58
2021/12/01 09:11:28;;;;;;;0.82;0.40;;;8.10;99.90;;;;;;5013775;28;20439;-57
2021/12/01 09:13:54;;;;;;;1.00;0.70;;;8.10;99.90;;;;;;5015022;28;20153;-58
2021/12/01 09:16:21;;;;;;;1.00;0.70;;;8.10;99.90;;;;;;5005206;28;20543;-56
2021/12/01 09:18:47;;;;;;;1.38;1.23;;;8.10;99.90;;;;;;5008304;28;20126;-57
2021/12/01 09:21:13;;;;;;;2.08;1.33;;;8.10;99.90;;;;;;5003710;28;20508;-58
2021/12/01 09:23:39;;;;;;;1.95;0.90;;;8.10;99.90;;;;;;5002304;28;20032;-58
2021/12/01 09:26:05;;;;;;;3.83;0.90;;;8.10;99.90;;;;;;5008453;28;20409;-58
2021/12/01 09:28:30;;;;;;;0.60;0.60;;;8.10;99.90;;;;;;4996282;28;20041;-59
2021/12/01 09:30:58;;;;;;;1.77;1.25;;;8.20;99.90;;;;;;5008143;28;20026;-57
2021/12/01 09:33:24;;;;;;;1.52;0.88;;;8.10;99.90;;;;;;5001875;28;20076;-60
2021/12/01 09:35:51;;;;;;;0.65;0.50;;;8.10;99.90;;;;;;5003737;28;20176;-56
2021/12/01 09:38:18;;;;;;;1.88;1.30;;;8.10;99.90;;;;;;5005935;28;20033;-57
2021/12/01 09:40:47;;;;;;;0.40;0.40;;;8.20;99.90;;;;;;5004115;28;20111;-59
2021/12/01 09:43:14;;;;;;;0.80;0.80;;;8.20;99.90;;;;;;5006940;28;20052;-55
2021/12/01 09:45:41;;;;;;;1.00;0.40;;;8.20;99.90;;;;;;5014204;28;20384;-55
2021/12/01 09:48:06;;;;;;;0.25;0.22;;;8.20;99.90;;;;;;5017452;28;20057;-57
2021/12/01 09:50:32;;;;;;;1.02;0.70;;;8.10;99.90;;;;;;5019566;28;20052;-55
2021/12/01 09:52:58;;;;;;;0.68;0.45;;;8.10;99.90;;;;;;5003485;28;20021;-58
2021/12/01 09:55:24;;;;;;;0.50;0.50;;;8.10;99.90;;;;;;4997267;28;20124;-56
2021/12/01 09:58:11;;;;;;;4.03;0.73;;;8.10;99.90;;;;;;4994372;28;20093;-57
2021/12/01 10:00:40;;;;;;;1.00;0.65;;;8.10;99.90;;;;;;4994312;28;20014;-58
2021/12/01 10:03:06;;;;;;;0.50;0.50;;;8.10;99.90;;;;;;4982529;28;20030;-58
2021/12/01 10:06:04;;;;;;;1.25;1.00;;;8.10;99.90;;;;;;4995647;28;20014;-57
2021/12/01 10:08:35;;;;;;;1.77;1.42;;;8.20;99.90;;;;;;4996474;28;20037;-60
2021/12/01 10:11:23;;;;;;;3.92;2.67;;;8.20;99.90;;;;;;4994148;28;20022;-58
2021/12/01 10:13:55;;;;;;;1.00;0.85;;;8.20;99.90;;;;;;4995325;28;20077;-57
2021/12/01 10:16:22;;;;;;;1.77;1.08;;;8.20;99.90;;;;;;4996060;28;20487;-59
2021/12/01 10:18:50;;;;;;;3.45;1.80;;;8.30;99.90;;;;;;4992715;28;20507;-55
2021/12/01 10:21:37;;;;;;;10.20;3.45;;;8.30;99.90;;;;;;4998780;28;20100;-58
2021/12/01 10:24:09;;;;;;;5.18;2.53;;;8.30;99.90;;;;;;4998046;28;20054;-59
2021/12/01 10:26:59;;;;;;;18.42;9.85;;;8.30;99.90;;;;;;4994092;28;20029;-58
2021/12/01 10:29:27;;;;;;;5.93;3.00;;;8.30;99.90;;;;;;4998554;28;20030;-59
2021/12/01 10:31:59;;;;;;;16.60;7.93;;;8.40;99.90;;;;;;5003438;28;20438;-59
2021/12/01 10:34:26;;;;;;;3.72;1.73;;;8.50;99.90;;;;;;5007304;28;20026;-59
2021/12/01 10:37:30;;;;;;;1.17;1.08;;;8.50;99.90;;;;;;5001909;28;20026;-52
2021/12/01 10:40:08;;;;;;;2.42;1.85;;;8.60;99.90;;;;;;5000142;28;20038;-58
2021/12/01 10:42:35;;;;;;;2.78;1.88;;;8.60;99.90;;;;;;5007985;28;20060;-57
2021/12/01 10:45:05;;;;;;;2.83;1.60;;;8.70;99.90;;;;;;5013440;28;20037;-57
2021/12/01 10:47:42;;;;;;;2.05;1.35;;;8.80;99.90;;;;;;5005293;28;20104;-55
2021/12/01 10:50:13;;;;;;;1.77;1.30;;;8.80;99.90;;;;;;5011445;28;20039;-56
2021/12/01 10:52:42;;;;;;;1.38;1.17;;;8.90;99.90;;;;;;5010456;28;20528;-55
2021/12/01 10:55:16;;;;;;;2.25;1.40;;;8.90;99.90;;;;;;5018589;28;20177;-55
2021/12/01 10:57:48;;;;;;;3.67;2.33;;;9.00;99.90;;;;;;5010736;28;20104;-56
2021/12/01 11:00:22;;;;;;;4.28;3.13;;;9.10;99.90;;;;;;5000972;28;20033;-55
2021/12/01 11:02:49;;;;;;;3.88;3.47;;;9.10;99.90;;;;;;5002442;28;20022;-56
2021/12/01 11:05:29;;;;;;;5.43;1.90;;;9.10;99.90;;;;;;4991120;28;20072;-57
2021/12/01 11:07:55;;;;;;;4.45;2.40;;;9.20;99.90;;;;;;5010660;28;20113;-58
2021/12/01 11:10:24;;;;;;;3.45;2.40;;;9.20;99.90;;;;;;5005164;28;20543;-57
2021/12/01 11:12:59;;;;;;;11.68;7.43;;;9.20;99.90;;;;;;5005212;28;20556;-55
2021/12/01 11:15:25;;;;;;;11.80;5.55;;;9.20;99.90;;;;;;5010429;28;20026;-56
2021/12/01 11:17:52;;;;;;;3.72;2.13;;;9.20;99.90;;;;;;5013980;28;20387;-59
2021/12/01 11:20:44;;;;;;;2.42;1.63;;;9.20;99.90;;;;;;5006385;28;20018;-59
2021/12/01 11:23:33;;;;;;;0.80;0.80;;;9.20;99.90;;;;;;5014003;28;20030;-56
2021/12/01 11:26:11;;;;;;;1.95;1.83;;;9.20;99.90;;;;;;4998513;28;20655;-56
2021/12/01 11:28:41;;;;;;;1.25;0.70;;;9.30;99.90;;;;;;4997456;28;20065;-54
2021/12/01 11:31:19;;;;;;;1.85;1.42;;;9.30;99.90;;;;;;4998734;28;20033;-57
2021/12/01 11:33:46;;;;;;;1.75;1.50;;;9.30;99.90;;;;;;4994752;28;20427;-54
2021/12/01 11:36:20;;;;;;;0.98;0.88;;;9.30;99.90;;;;;;5001996;28;20093;-57
2021/12/01 11:38:51;;;;;;;1.77;1.30;;;9.30;99.90;;;;;;5008124;28;20539;-56
2021/12/01 11:41:17;;;;;;;0.70;0.70;;;9.30;99.90;;;;;;5013943;28;20045;-55
2021/12/01 11:43:43;;;;;;;0.75;0.73;;;9.30;99.90;;;;;;5001864;28;20021;-55
2021/12/01 11:46:09;;;;;;;0.65;0.55;;;9.30;99.90;;;;;;4998108;28;20026;-55
2021/12/01 11:48:43;;;;;;;0.70;0.70;;;9.20;99.90;;;;;;4999112;28;20029;-58
2021/12/01 11:51:20;;;;;;;0.70;0.70;;;9.10;99.90;;;;;;4996579;28;20030;-58
2021/12/01 11:53:57;;;;;;;0.70;0.65;;;9.10;99.90;;;;;;4999460;28;20080;-58
2021/12/01 11:56:32;;;;;;;0.80;0.80;;;9.10;99.90;;;;;;4997467;28;20126;-58
2021/12/01 11:59:01;;;;;;;1.77;1.30;;;9.10;99.90;;;;;;4995833;28;20081;-54
2021/12/01 12:01:29;;;;;;;3.65;1.70;;;9.10;99.90;;;;;;4995832;28;20096;-57
2021/12/01 12:03:59;;;;;;;8.70;3.22;;;9.10;99.90;;;;;;4990813;28;20029;-56
2021/12/01 12:06:30;;;;;;;5.07;2.00;;;9.00;99.90;;;;;;4995885;28;20149;-54
2021/12/01 12:09:00;;;;;;;7.07;2.95;;;9.00;99.90;;;;;;4999792;28;20034;-55
2021/12/01 12:11:37;;;;;;;5.60;2.55;;;8.90;99.90;;;;;;4993768;28;20556;-54
2021/12/01 12:14:13;;;;;;;1.80;1.25;;;8.90;99.90;;;;;;5009309;28;20033;-53
2021/12/01 12:16:41;;;;;;;3.22;2.00;;;8.80;99.90;;;;;;4999112;28;20375;-56
2021/12/01 12:19:07;;;;;;;5.03;3.10;;;8.80;99.90;;;;;;5004421;28;20037;-55
2021/12/01 12:24:15;;;;;;;3.70;1.92;;;8.80;99.90;;;;;;5006114;28;20030;-59
2021/12/01 12:26:44;;;;;;;8.45;3.45;;;8.80;99.90;;;;;;5006943;28;20490;-53
2021/12/01 12:29:15;;;;;;;9.23;4.82;;;8.80;99.90;;;;;;5012159;28;20041;-55
2021/12/01 12:31:42;;;;;;;10.38;6.43;;;8.80;99.90;;;;;;4994371;28;20477;-58
2021/12/01 12:34:15;;;;;;;10.85;5.22;;;8.80;99.90;;;;;;5006008;28;20037;-56
2021/12/01 12:36:50;;;;;;;8.00;4.65;;;8.80;99.90;;;;;;5006521;28;20022;-57
2021/12/01 12:39:21;;;;;;;16.10;8.20;;;8.80;99.90;;;;;;4992889;28;20030;-56
2021/12/01 12:42:00;;;;;;;10.43;5.43;;;8.80;99.90;;;;;;4996722;28;20697;-58
2021/12/01 12:44:45;;;;;;;5.03;2.40;;;8.70;99.90;;;;;;4994537;28;20034;-58
2021/12/01 12:47:14;;;;;;;3.65;1.95;;;8.70;99.90;;;;;;4995403;28;20037;-57
2021/12/01 12:49:39;;;;;;;2.40;1.50;;;8.60;99.90;;;;;;4994192;28;20373;-57
2021/12/01 12:52:23;;;;;;;11.10;6.05;;;8.60;99.90;;;;;;4996533;28;20037;-56
2021/12/01 12:54:50;;;;;;;5.85;2.40;;;8.50;99.90;;;;;;4994895;28;20030;-56
2021/12/01 12:57:16;;;;;;;6.32;3.17;;;8.50;99.90;;;;;;5004689;28;20527;-57
2021/12/01 12:59:43;;;;;;;2.35;1.25;;;8.50;99.90;;;;;;5000500;28;20517;-54
2021/12/01 13:02:11;;;;;;;6.18;3.00;;;8.40;99.90;;;;;;5002174;28;20039;-58
2021/12/01 13:04:54;;;;;;;4.22;1.95;;;8.40;99.90;;;;;;5005046;28;20442;-57
2021/12/01 13:07:38;;;;;;;4.40;1.95;;;8.50;99.90;;;;;;5016029;28;20061;-55
2021/12/01 13:10:05;;;;;;;;;;;8.50;99.90;;;;;;5004381;28;20058;-53